createdAt,value
2023-03-18T09:27:10.653Z,5384.00
2023-03-18T09:28:10.654Z,2944.00
2023-03-18T09:29:10.661Z,3732.00
2023-03-18T09:30:10.617Z,3168.00
2023-03-18T09:31:10.677Z,3072.00
2023-03-18T09:32:10.649Z,5480.00
2023-03-18T09:34:57.259Z,3276.00
2023-03-18T09:35:57.314Z,2848.00
2023-03-18T09:39:11.709Z,2584.00
2023-03-18T09:40:11.710Z,2720.00
2023-03-18T09:41:11.709Z,2748.00
2023-03-18T09:42:11.717Z,2836.00
2023-03-18T09:48:22.330Z,4224.00
2023-03-18T09:49:22.293Z,4556.00
2023-03-18T09:50:22.368Z,5440.00
2023-03-18T09:51:27.532Z,1668.00
2023-03-18T10:12:09.023Z,3508.00
2023-03-18T10:13:08.997Z,4232.00
2023-03-18T10:14:08.961Z,2752.00
2023-03-18T10:15:08.918Z,3568.00
2023-03-18T10:16:08.927Z,2536.00
2023-03-18T10:17:08.863Z,2596.00
2023-03-18T10:18:08.840Z,3836.00
2023-03-18T10:18:43.599Z,4668.00
2023-03-18T10:19:43.597Z,2848.00
2023-03-18T10:20:48.315Z,4532.00
2023-03-18T10:22:05.260Z,3700.00
2023-03-18T10:23:02.556Z,4680.00
2023-03-18T10:23:44.583Z,4092.00
2023-03-18T10:25:44.573Z,4928.00
2023-03-18T10:28:44.523Z,24384.00
2023-03-18T10:29:44.514Z,20672.00
2023-03-18T10:30:44.528Z,62464.00
2023-03-18T10:31:44.498Z,47648.00
2023-03-18T10:33:44.475Z,22656.00
2023-03-18T10:34:44.461Z,23936.00
2023-03-18T10:36:44.440Z,116576.00
2023-03-18T10:38:44.418Z,116128.00
2023-03-18T10:39:44.409Z,109152.00
2023-03-18T10:40:44.400Z,104768.00
2023-03-18T10:41:44.405Z,85312.00
2023-03-18T10:42:44.377Z,77792.00
2023-03-18T10:43:44.365Z,93600.00
2023-03-18T10:44:44.352Z,95680.00
2023-03-18T10:45:44.345Z,18176.00
2023-03-18T10:47:44.321Z,109344.00
2023-03-18T10:48:44.315Z,105856.00
2023-03-18T10:49:44.303Z,100128.00
2023-03-18T10:50:44.299Z,96064.00
2023-03-18T10:51:44.277Z,93984.00
2023-03-18T10:52:44.269Z,91872.00
2023-03-18T10:53:44.259Z,90784.00
2023-03-18T10:54:44.251Z,91136.00
2023-03-18T10:55:44.235Z,93824.00
2023-03-18T10:58:44.205Z,99072.00
2023-03-18T11:00:44.185Z,97824.00
2023-03-18T11:01:44.285Z,29568.00
2023-03-18T11:02:44.300Z,94144.00
2023-03-18T11:03:44.165Z,72192.00
2023-03-18T11:04:44.145Z,96896.00
2023-03-18T11:05:44.130Z,98496.00
2023-03-18T11:06:44.133Z,101696.00
2023-03-18T11:07:44.109Z,105824.00
2023-03-18T11:08:44.099Z,30528.00
2023-03-18T11:09:44.087Z,108480.00
2023-03-18T11:10:44.081Z,22624.00
2023-03-18T11:11:44.068Z,22304.00
2023-03-18T11:12:44.057Z,111808.00
2023-03-18T11:13:44.069Z,106336.00
2023-03-18T11:15:44.100Z,100480.00
2023-03-18T11:16:44.017Z,100320.00
2023-03-18T11:18:43.994Z,96160.00
2023-03-18T11:19:43.983Z,101248.00
2023-03-18T11:20:43.973Z,111776.00
2023-03-18T11:21:43.962Z,108768.00
2023-03-18T11:23:43.941Z,94560.00
2023-03-18T11:24:43.928Z,86976.00
2023-03-18T11:25:43.920Z,85088.00
2023-03-18T11:26:43.918Z,88160.00
2023-03-18T11:27:43.900Z,94784.00
2023-03-18T11:28:43.895Z,102592.00
2023-03-18T11:29:46.286Z,100608.00
2023-03-18T11:30:44.244Z,84960.00
2023-03-18T11:31:43.875Z,80736.00
2023-03-18T11:32:43.887Z,83456.00
2023-03-18T11:34:43.832Z,92000.00
2023-03-18T11:36:43.806Z,86176.00
2023-03-18T11:37:43.791Z,92448.00
2023-03-18T11:38:43.782Z,98656.00
2023-03-18T11:39:43.921Z,101088.00
2023-03-18T11:41:43.747Z,99392.00
2023-03-18T11:43:43.731Z,103200.00
2023-03-18T11:44:43.718Z,46272.00
2023-03-18T11:45:43.725Z,72576.00
2023-03-18T11:46:43.770Z,100704.00
2023-03-18T11:47:43.686Z,102912.00
2023-03-18T11:48:43.707Z,102176.00
2023-03-18T11:49:43.667Z,98240.00
2023-03-18T11:52:43.632Z,96736.00
2023-03-18T11:53:43.621Z,97312.00
2023-03-18T11:54:43.612Z,98912.00
2023-03-18T11:55:43.599Z,97504.00
2023-03-18T11:56:43.593Z,99936.00
2023-03-18T11:58:43.570Z,106944.00
2023-03-18T11:59:43.558Z,17984.00
2023-03-18T12:00:43.558Z,16216.00
2023-03-18T12:01:43.584Z,16652.00
2023-03-18T12:02:43.533Z,19584.00
2023-03-18T12:03:43.521Z,33184.00
2023-03-18T12:04:43.684Z,22816.00
2023-03-18T12:05:43.503Z,23552.00
2023-03-18T12:06:43.487Z,26016.00
2023-03-18T12:07:43.474Z,22944.00
2023-03-18T12:08:43.468Z,40320.00
2023-03-18T12:09:43.463Z,99136.00
2023-03-18T12:10:43.443Z,86656.00
2023-03-18T12:11:43.438Z,66784.00
2023-03-18T12:12:43.425Z,58272.00
2023-03-18T12:13:43.414Z,19072.00
2023-03-18T12:14:43.408Z,18944.00
2023-03-18T12:15:43.391Z,20320.00
2023-03-18T12:16:43.473Z,29824.00
2023-03-18T12:17:43.397Z,76608.00
2023-03-18T12:18:43.381Z,76032.00
2023-03-18T12:19:43.363Z,25760.00
2023-03-18T12:20:43.342Z,21344.00
2023-03-18T12:21:43.328Z,18624.00
2023-03-18T12:22:43.320Z,17824.00
2023-03-18T12:23:43.306Z,18304.00
2023-03-18T12:24:43.299Z,24928.00
2023-03-18T12:26:43.281Z,30592.00
2023-03-18T12:27:43.269Z,90912.00
2023-03-18T12:28:43.256Z,21952.00
2023-03-18T12:29:43.246Z,19648.00
2023-03-18T12:31:43.250Z,24064.00
2023-03-18T12:32:43.280Z,24256.00
2023-03-18T12:33:43.232Z,23968.00
2023-03-18T12:34:43.194Z,24768.00
2023-03-18T12:35:43.208Z,25760.00
2023-03-18T12:36:43.173Z,94400.00
2023-03-18T12:37:43.159Z,100128.00
2023-03-18T12:38:43.153Z,104896.00
2023-03-18T12:39:43.142Z,104576.00
2023-03-18T12:40:43.131Z,81888.00
2023-03-18T12:41:43.121Z,55392.00
2023-03-18T12:42:43.112Z,28128.00
2023-03-18T12:43:43.099Z,26240.00
2023-03-18T12:44:43.097Z,35968.00
2023-03-18T12:45:43.117Z,95648.00
2023-03-18T12:46:43.069Z,93792.00
2023-03-18T12:47:43.061Z,44224.00
2023-03-18T12:48:44.744Z,85824.00
2023-03-18T12:50:43.040Z,25632.00
2023-03-18T12:51:43.017Z,27360.00
2023-03-18T12:52:43.004Z,31744.00
2023-03-18T12:53:42.994Z,32704.00
2023-03-18T12:54:42.981Z,43840.00
2023-03-18T12:55:42.970Z,85376.00
2023-03-18T12:58:42.964Z,91200.00
2023-03-18T12:59:42.928Z,64192.00
2023-03-18T13:00:42.944Z,90144.00
2023-03-18T13:01:42.980Z,31968.00
2023-03-18T13:02:43.020Z,69184.00
2023-03-18T13:03:42.887Z,51648.00
2023-03-18T13:04:42.874Z,26272.00
2023-03-18T13:05:42.915Z,31488.00
2023-03-18T13:06:42.853Z,51840.00
2023-03-18T13:07:42.838Z,28096.00
2023-03-18T13:08:42.842Z,20608.00
2023-03-18T13:09:42.820Z,20032.00
2023-03-18T13:10:42.809Z,25152.00
2023-03-18T13:11:42.795Z,42176.00
2023-03-18T13:12:42.788Z,33888.00
2023-03-18T13:13:42.773Z,34176.00
2023-03-18T13:14:42.808Z,44288.00
2023-03-18T13:15:42.754Z,68896.00
2023-03-18T13:17:42.737Z,55104.00
2023-03-18T13:18:42.721Z,39520.00
2023-03-18T13:19:42.709Z,20832.00
2023-03-18T13:20:42.700Z,20352.00
2023-03-18T13:21:42.705Z,20256.00
2023-03-18T13:22:42.679Z,20640.00
2023-03-18T13:23:42.664Z,21024.00
2023-03-18T13:24:42.656Z,22432.00
2023-03-18T13:25:42.647Z,36384.00
2023-03-18T13:26:42.634Z,20032.00
2023-03-18T13:27:42.623Z,27360.00
2023-03-18T13:28:42.651Z,25568.00
2023-03-18T13:29:45.035Z,27968.00
2023-03-18T13:30:42.618Z,30208.00
2023-03-18T13:31:42.579Z,18048.00
2023-03-18T13:32:42.603Z,15052.00
2023-03-18T13:33:42.558Z,13596.00
2023-03-18T13:34:42.544Z,12756.00
2023-03-18T13:35:42.550Z,12096.00
2023-03-18T13:36:42.528Z,11704.00
2023-03-18T13:37:42.532Z,11604.00
2023-03-18T13:39:42.499Z,13236.00
2023-03-18T13:40:43.031Z,14424.00
2023-03-18T13:41:42.470Z,16288.00
2023-03-18T13:42:42.466Z,18272.00
2023-03-18T13:43:42.451Z,19776.00
2023-03-18T13:44:42.441Z,39392.00
2023-03-18T13:45:42.437Z,23904.00
2023-03-18T13:47:42.411Z,23680.00
2023-03-18T13:48:42.408Z,20064.00
2023-03-18T13:49:42.390Z,17792.00
2023-03-18T13:50:42.397Z,16352.00
2023-03-18T13:51:42.368Z,19136.00
2023-03-18T13:53:42.362Z,19296.00
2023-03-18T13:54:42.333Z,16352.00
2023-03-18T13:55:42.320Z,13488.00
2023-03-18T13:57:42.301Z,35552.00
2023-03-18T13:58:42.285Z,12248.00
2023-03-18T14:00:42.302Z,10388.00
2023-03-18T14:01:42.264Z,10348.00
2023-03-18T14:02:42.247Z,9804.00
2023-03-18T14:03:42.442Z,9584.00
2023-03-18T14:05:42.220Z,11260.00
2023-03-18T14:06:42.209Z,12680.00
2023-03-18T14:08:42.185Z,13292.00
2023-03-18T14:09:42.192Z,12876.00
2023-03-18T14:10:42.206Z,12468.00
2023-03-18T14:11:43.625Z,12400.00
2023-03-18T14:12:42.217Z,12308.00
2023-03-18T14:13:42.190Z,11808.00
2023-03-18T14:14:42.122Z,10596.00
2023-03-18T14:15:42.203Z,9280.00
2023-03-18T14:16:42.099Z,7932.00
2023-03-18T14:17:42.093Z,6576.00
2023-03-18T14:18:42.081Z,5080.00
2023-03-18T14:19:42.070Z,3872.00
2023-03-18T14:20:42.060Z,3184.00
2023-03-18T14:21:42.048Z,2724.00
2023-03-18T14:22:42.034Z,2324.00
2023-03-18T14:24:42.014Z,1736.00
2023-03-18T14:25:42.027Z,1572.00
2023-03-18T14:26:41.995Z,1436.00
2023-03-18T14:27:41.991Z,1304.00
2023-03-18T14:28:41.979Z,1164.00
2023-03-18T14:29:41.960Z,1032.00
2023-03-18T14:30:41.954Z,924.00
2023-03-18T14:33:41.922Z,828.00
2023-03-18T14:34:41.908Z,836.00
2023-03-18T14:35:41.930Z,832.00
2023-03-18T14:36:41.886Z,800.00
2023-03-18T14:37:41.877Z,800.00
2023-03-18T14:38:41.866Z,804.00
2023-03-18T14:39:41.857Z,908.00
2023-03-18T14:40:41.853Z,880.00
2023-03-18T14:41:41.855Z,716.00
2023-03-18T14:42:41.832Z,592.00
2023-03-18T14:43:41.814Z,484.00
2023-03-18T14:44:41.805Z,376.00
2023-03-18T14:45:41.792Z,296.00
2023-03-18T14:46:41.880Z,280.00
2023-03-18T14:47:41.771Z,284.00
2023-03-18T14:48:41.760Z,308.00
2023-03-18T14:49:41.757Z,332.00
2023-03-18T14:50:41.736Z,344.00
2023-03-18T14:51:41.727Z,360.00
2023-03-18T14:52:41.715Z,404.00
2023-03-18T14:53:41.717Z,436.00
2023-03-18T14:54:41.692Z,496.00
2023-03-18T14:55:41.712Z,588.00
2023-03-18T14:57:41.681Z,924.00
2023-03-18T14:58:41.651Z,1136.00
2023-03-18T14:59:41.641Z,1432.00
2023-03-18T15:00:41.630Z,1840.00
2023-03-18T15:01:41.719Z,2408.00
2023-03-18T15:02:41.621Z,2828.00
2023-03-18T15:04:41.585Z,4508.00
2023-03-18T15:05:41.579Z,6044.00
2023-03-18T15:08:48.125Z,14356.00
2023-03-18T15:09:42.566Z,15016.00
2023-03-18T15:11:41.513Z,15576.00
2023-03-18T15:12:41.501Z,14168.00
2023-03-18T15:13:41.511Z,12384.00
2023-03-18T15:14:41.479Z,11100.00
2023-03-18T15:15:41.469Z,10616.00
2023-03-18T15:16:41.535Z,10100.00
2023-03-18T15:17:41.451Z,9412.00
2023-03-18T15:18:41.440Z,8980.00
2023-03-18T15:19:41.430Z,8908.00
2023-03-18T15:21:41.412Z,10824.00
2023-03-18T15:22:41.394Z,8956.00
2023-03-18T15:24:41.375Z,8088.00
2023-03-18T15:25:41.364Z,8048.00
2023-03-18T15:26:41.364Z,8740.00
2023-03-18T15:28:41.332Z,7396.00
2023-03-18T15:29:41.345Z,6948.00
2023-03-18T15:30:41.310Z,6348.00
2023-03-18T15:31:41.359Z,5600.00
2023-03-18T15:32:41.321Z,4964.00
2023-03-18T15:33:41.284Z,4528.00
2023-03-18T15:34:41.273Z,4428.00
2023-03-18T15:35:41.280Z,4612.00
2023-03-18T15:36:41.248Z,4804.00
2023-03-18T15:37:41.245Z,5088.00
2023-03-18T15:38:41.226Z,5300.00
2023-03-18T15:40:41.206Z,4868.00
2023-03-18T15:41:41.203Z,5240.00
2023-03-18T15:44:41.162Z,12728.00
2023-03-18T15:45:41.228Z,6972.00
2023-03-18T15:46:41.142Z,6680.00
2023-03-18T15:48:41.128Z,6516.00
2023-03-18T15:49:41.111Z,6816.00
2023-03-18T15:51:41.095Z,7272.00
2023-03-18T15:52:41.081Z,6988.00
2023-03-18T15:53:41.069Z,6412.00
2023-03-18T15:54:41.069Z,5748.00
2023-03-18T15:55:41.049Z,5012.00
2023-03-18T15:56:41.046Z,4448.00
2023-03-18T15:57:41.037Z,4000.00
2023-03-18T15:58:41.027Z,3740.00
2023-03-18T15:59:41.011Z,3588.00
2023-03-18T16:00:41.000Z,3432.00
2023-03-18T16:01:41.012Z,3392.00
2023-03-18T16:03:40.969Z,3712.00
2023-03-18T16:06:40.934Z,3436.00
2023-03-18T16:08:40.914Z,4072.00
2023-03-18T16:09:40.903Z,5064.00
2023-03-18T16:10:40.940Z,4452.00
2023-03-18T16:11:40.883Z,4600.00
2023-03-18T16:14:40.852Z,3372.00
2023-03-18T16:15:40.841Z,3204.00
2023-03-18T16:16:40.859Z,2992.00
2023-03-18T16:17:40.844Z,2860.00
2023-03-18T16:18:40.808Z,3756.00
2023-03-18T16:19:40.797Z,4056.00
2023-03-18T16:20:40.788Z,7748.00
2023-03-18T16:21:40.777Z,9420.00
2023-03-18T16:24:40.746Z,2736.00
2023-03-18T16:25:40.738Z,2808.00
2023-03-18T16:27:40.721Z,3060.00
2023-03-18T16:28:42.198Z,3316.00
2023-03-18T16:29:40.796Z,3652.00
2023-03-18T16:30:40.681Z,3948.00
2023-03-18T16:31:40.693Z,4184.00
2023-03-18T16:32:40.671Z,4360.00
2023-03-18T16:33:40.672Z,4404.00
2023-03-18T16:34:40.641Z,4340.00
2023-03-18T16:36:40.616Z,4744.00
2023-03-18T16:37:40.608Z,4244.00
2023-03-18T16:38:40.595Z,3924.00
2023-03-18T16:40:40.575Z,3544.00
2023-03-18T16:41:40.568Z,3508.00
2023-03-18T16:42:40.552Z,3412.00
2023-03-18T16:43:40.542Z,3388.00
2023-03-18T16:44:40.531Z,3368.00
2023-03-18T16:45:40.567Z,3336.00
2023-03-18T16:46:40.508Z,3284.00
2023-03-18T16:47:40.500Z,3144.00
2023-03-18T16:48:40.487Z,3164.00
2023-03-18T16:49:40.501Z,3124.00
2023-03-18T16:50:40.466Z,3080.00
2023-03-18T16:51:40.461Z,3132.00
2023-03-18T16:52:40.447Z,3156.00
2023-03-18T16:54:40.432Z,2940.00
2023-03-18T16:55:40.418Z,2892.00
2023-03-18T16:56:40.405Z,2812.00
2023-03-18T16:58:40.383Z,2692.00
2023-03-18T16:59:40.375Z,2560.00
2023-03-18T17:00:40.361Z,2364.00
2023-03-18T17:01:40.394Z,2144.00
2023-03-18T17:02:40.342Z,1916.00
2023-03-18T17:03:40.331Z,1768.00
2023-03-18T17:04:40.382Z,1696.00
2023-03-18T17:05:40.332Z,1676.00
2023-03-18T17:06:40.310Z,1632.00
2023-03-18T17:08:40.303Z,1540.00
2023-03-18T17:09:40.269Z,1448.00
2023-03-18T17:10:40.260Z,1340.00
2023-03-18T17:11:40.245Z,1256.00
2023-03-18T17:12:40.244Z,1176.00
2023-03-18T17:13:40.238Z,1092.00
2023-03-18T17:14:40.223Z,1024.00
2023-03-18T17:15:40.204Z,964.00
2023-03-18T17:16:40.210Z,908.00
2023-03-18T17:17:40.185Z,860.00
2023-03-18T17:18:40.172Z,816.00
2023-03-18T17:19:40.165Z,772.00
2023-03-18T17:21:40.158Z,688.00
2023-03-18T17:22:40.128Z,648.00
2023-03-18T17:23:40.123Z,612.00
2023-03-18T17:24:40.108Z,580.00
2023-03-18T17:25:40.100Z,548.00
2023-03-18T17:26:40.088Z,516.00
2023-03-18T17:27:40.080Z,484.00
2023-03-18T17:28:40.079Z,448.00
2023-03-18T17:29:40.057Z,412.00
2023-03-18T17:30:40.145Z,380.00
2023-03-18T17:31:40.053Z,340.00
2023-03-18T17:32:40.053Z,304.00
2023-03-18T17:34:40.003Z,236.00
2023-03-18T17:35:40.023Z,208.00
2023-03-18T17:36:39.992Z,184.00
2023-03-18T17:37:39.993Z,168.00
2023-03-18T17:38:39.961Z,152.00
2023-03-18T17:39:39.954Z,136.00
2023-03-18T17:40:39.946Z,124.00
2023-03-18T17:41:39.936Z,116.00
2023-03-18T17:42:39.915Z,108.00
2023-03-18T17:43:39.906Z,96.00
2023-03-18T17:44:39.893Z,88.00
2023-03-18T17:45:39.901Z,80.00
2023-03-18T17:46:39.908Z,72.00
2023-03-18T17:48:39.850Z,56.00
2023-03-18T17:49:39.848Z,48.00
2023-03-18T17:50:39.828Z,44.00
2023-03-18T17:51:39.824Z,40.00
2023-03-18T17:52:39.807Z,32.00
2023-03-18T17:53:39.815Z,24.00
2023-03-18T17:54:39.800Z,24.00
2023-03-18T17:55:39.777Z,20.00
2023-03-18T17:56:39.771Z,16.00
2023-03-18T17:57:39.758Z,12.00
2023-03-18T17:59:39.741Z,8.00
2023-03-18T18:00:39.722Z,8.00
2023-03-18T18:01:39.737Z,8.00
2023-03-18T18:02:39.783Z,4.00
2023-03-18T18:03:39.698Z,4.00
2023-03-18T18:05:39.670Z,4.00
2023-03-18T18:08:39.637Z,4.00
